createdAt,value
2018-09-19T00:00:55.456Z,92.72
2018-09-19T00:02:04.111Z,92.72
2018-09-19T00:03:13.026Z,92.72
2018-09-19T00:04:21.931Z,92.91
2018-09-19T00:05:30.856Z,92.82
2018-09-19T00:06:40.398Z,92.91
2018-09-19T00:07:49.259Z,92.63
2018-09-19T00:08:58.168Z,93.59
2018-09-19T00:10:06.829Z,92.54
2018-09-19T00:11:15.735Z,92.63
2018-09-19T00:12:24.387Z,93.11
2018-09-19T00:13:33.028Z,93.21
2018-09-19T00:14:41.679Z,93.21
2018-09-19T00:15:50.862Z,93.21
2018-09-19T00:16:59.509Z,93.4
2018-09-19T00:18:08.705Z,93.68
2018-09-19T00:19:17.875Z,93.78
2018-09-19T00:20:26.521Z,93.4
2018-09-19T00:21:35.429Z,93.11
2018-09-19T00:22:44.079Z,93.4
2018-09-19T00:23:52.735Z,93.59
2018-09-19T00:25:01.909Z,93.68
2018-09-19T00:26:10.823Z,93.68
2018-09-19T00:27:20.004Z,93.78
2018-09-19T00:28:28.928Z,94.07
2018-09-19T00:29:37.841Z,93.4
2018-09-19T00:30:46.755Z,93.3
2018-09-19T00:31:55.398Z,93.59
2018-09-19T00:33:04.050Z,93.68
2018-09-19T00:34:12.963Z,93.3
2018-09-19T00:35:21.615Z,93.59
2018-09-19T00:36:30.522Z,93.11
2018-09-19T00:37:39.437Z,93.88
2018-09-19T00:38:48.352Z,94.35
2018-09-19T00:39:56.999Z,93.97
2018-09-19T00:41:05.646Z,94.17
2018-09-19T00:42:14.820Z,93.97
2018-09-19T00:43:23.468Z,93.78
2018-09-19T00:44:32.639Z,93.59
2018-09-19T00:45:41.564Z,94.17
2018-09-19T00:46:50.466Z,94.07
2018-09-19T00:47:59.126Z,93.78
2018-09-19T00:49:08.297Z,93.68
2018-09-19T00:50:16.946Z,94.17
2018-09-19T00:51:25.590Z,93.78
2018-09-19T00:52:34.764Z,94.35
2018-09-19T00:53:43.410Z,94.84
2018-09-19T00:54:52.063Z,94.07
2018-09-19T00:56:00.971Z,94.07
2018-09-19T00:57:09.614Z,94.07
2018-09-19T00:58:18.523Z,94.26
2018-09-19T00:59:27.172Z,93.88
2018-09-19T01:00:36.093Z,94.35
2018-09-19T01:01:44.743Z,93.68
2018-09-19T01:02:53.924Z,94.35
2018-09-19T01:04:03.107Z,94.35
2018-09-19T01:05:12.023Z,93.78
2018-09-19T01:06:21.195Z,94.35
2018-09-19T01:07:30.111Z,93.97
2018-09-19T01:08:39.020Z,94.07
2018-09-19T01:09:47.676Z,94.35
2018-09-19T01:10:56.324Z,94.74
2018-09-19T01:12:05.254Z,94.74
2018-09-19T01:13:14.173Z,94.64
2018-09-19T01:14:23.080Z,94.84
2018-09-19T01:15:31.989Z,94.64
2018-09-19T01:16:40.647Z,94.64
2018-09-19T01:17:49.593Z,94.45
2018-09-19T01:18:58.458Z,94.84
2018-09-19T01:20:07.377Z,94.45
2018-09-19T01:21:16.024Z,94.84
2018-09-19T01:22:24.680Z,94.45
2018-09-19T01:23:33.315Z,94.84
2018-09-19T01:24:42.231Z,94.93
2018-09-19T01:25:50.874Z,94.54
2018-09-19T01:26:59.534Z,94.74
2018-09-19T01:28:08.456Z,94.64
2018-09-19T01:29:17.095Z,94.74
2018-09-19T01:30:25.738Z,95.41
2018-09-19T01:31:34.392Z,94.45
2018-09-19T01:32:43.311Z,94.93
2018-09-19T01:33:51.957Z,94.64
2018-09-19T01:35:00.872Z,94.84
2018-09-19T01:36:09.782Z,94.45
2018-09-19T01:37:18.444Z,94.54
2018-09-19T01:38:27.613Z,94.74
2018-09-19T01:39:36.264Z,95.12
2018-09-19T01:40:44.905Z,94.74
2018-09-19T01:41:53.561Z,95.21
2018-09-19T01:43:02.458Z,94.84
2018-09-19T01:44:11.385Z,95.03
2018-09-19T01:45:20.286Z,94.84
2018-09-19T01:46:29.207Z,94.74
2018-09-19T01:47:37.901Z,94.93
2018-09-19T01:48:47.035Z,94.74
2018-09-19T01:49:55.674Z,94.84
2018-09-19T01:51:04.326Z,95.21
2018-09-19T01:52:13.245Z,95.21
2018-09-19T01:53:22.424Z,94.74
2018-09-19T01:54:31.353Z,94.84
2018-09-19T01:55:40.254Z,94.74
2018-09-19T01:56:49.703Z,95.03
2018-09-19T01:57:58.347Z,94.84
2018-09-19T01:59:07.005Z,94.64
2018-09-19T02:00:15.961Z,95.03
2018-09-19T02:01:25.163Z,94.64
2018-09-19T02:02:33.800Z,94.84
2018-09-19T02:03:42.455Z,94.74
2018-09-19T02:04:51.095Z,95.12
2018-09-19T02:05:59.746Z,95.03
2018-09-19T02:07:08.653Z,95.21
2018-09-19T02:08:17.845Z,94.84
2018-09-19T02:09:26.497Z,95.21
2018-09-19T02:10:35.139Z,95.12
2018-09-19T02:11:43.783Z,95.21
2018-09-19T02:12:52.690Z,95.12
2018-09-19T02:14:01.387Z,95.12
2018-09-19T02:15:09.997Z,95.12
2018-09-19T02:16:18.643Z,95.7
2018-09-19T02:17:27.282Z,95.79
2018-09-19T02:18:36.197Z,95.84
2018-09-19T02:19:45.386Z,96.13
2018-09-19T02:20:55.085Z,95.7
2018-09-19T02:22:04.263Z,94.79
2018-09-19T02:23:13.184Z,94.84
2018-09-19T02:24:21.828Z,95.03
2018-09-19T02:25:30.748Z,95.31
2018-09-19T02:26:40.204Z,95.84
2018-09-19T02:27:49.665Z,95.75
2018-09-19T02:28:58.309Z,96.08
2018-09-19T02:30:07.517Z,95.26
2018-09-19T02:31:17.245Z,95.94
2018-09-19T02:32:26.454Z,95.84
2018-09-19T02:33:35.367Z,96.03
2018-09-19T02:34:44.274Z,96.13
2018-09-19T02:35:53.196Z,96.32
2018-09-19T02:37:02.101Z,96.42
2018-09-19T02:38:11.326Z,96.61
2018-09-19T02:39:20.239Z,96.42
2018-09-19T02:40:29.149Z,96.7
2018-09-19T02:41:38.058Z,96.61
2018-09-19T02:42:46.700Z,97.47
2018-09-19T02:43:55.614Z,97.28
2018-09-19T02:45:04.799Z,97.38
2018-09-19T02:46:13.717Z,97.85
2018-09-19T02:47:22.365Z,97.52
2018-09-19T02:48:31.539Z,98.1
2018-09-19T02:49:40.522Z,98
2018-09-19T02:50:49.426Z,98
2018-09-19T02:51:58.039Z,97.8
2018-09-19T02:53:06.954Z,97.61
2018-09-19T02:54:16.125Z,98.1
2018-09-19T02:55:25.060Z,98.76
2018-09-19T02:56:34.236Z,98.28
2018-09-19T02:57:43.161Z,98.57
2018-09-19T02:58:52.085Z,98.47
2018-09-19T03:00:01.008Z,98.47
2018-09-19T03:01:09.648Z,98.96
2018-09-19T03:02:18.564Z,98.76
2018-09-19T03:03:27.476Z,98.86
2018-09-19T03:04:36.391Z,98.86
2018-09-19T03:05:45.307Z,98.96
2018-09-19T03:06:54.224Z,98.57
2018-09-19T03:08:02.879Z,99.05
2018-09-19T03:09:12.051Z,99.24
2018-09-19T03:10:20.704Z,98.91
2018-09-19T03:11:29.347Z,99.24
2018-09-19T03:12:38.263Z,99.53
2018-09-19T03:13:47.432Z,99.63
2018-09-19T03:14:56.913Z,99.72
2018-09-19T03:16:05.820Z,99.58
2018-09-19T03:17:15.098Z,99.38
2018-09-19T03:18:24.030Z,99.19
2018-09-19T03:19:32.965Z,99.58
2018-09-19T03:20:41.613Z,99.38
2018-09-19T03:21:50.532Z,99.48
2018-09-19T03:22:59.732Z,99.58
2018-09-19T03:24:08.905Z,99.48
2018-09-19T03:25:17.812Z,99.99
2018-09-19T03:26:26.991Z,99.96
2018-09-19T03:27:36.232Z,99.96
2018-09-19T03:28:45.136Z,99.99
2018-09-19T03:29:53.791Z,99.96
2018-09-19T03:31:02.702Z,99.87
2018-09-19T03:32:11.642Z,99.77
2018-09-19T03:33:20.558Z,99.99
2018-09-19T03:34:29.484Z,99.87
2018-09-19T03:35:38.405Z,99.99
2018-09-19T03:36:47.063Z,99.99
2018-09-19T03:37:55.977Z,99.99
2018-09-19T03:39:05.165Z,99.99
2018-09-19T03:40:14.068Z,99.99
2018-09-19T03:41:22.717Z,99.99
2018-09-19T03:42:31.373Z,99.99
2018-09-19T03:43:40.024Z,99.99
2018-09-19T03:44:49.213Z,99.99
2018-09-19T03:45:58.124Z,99.99
2018-09-19T03:47:07.347Z,99.99
2018-09-19T03:48:16.257Z,99.99
2018-09-19T03:49:25.177Z,99.99
2018-09-19T03:50:34.360Z,99.99
2018-09-19T03:51:43.562Z,99.99
2018-09-19T03:52:52.474Z,99.99
2018-09-19T03:54:01.935Z,99.99
2018-09-19T03:55:11.108Z,99.99
2018-09-19T03:56:19.744Z,99.99
2018-09-19T03:57:28.656Z,99.99
2018-09-19T03:58:38.119Z,99.99
2018-09-19T03:59:47.033Z,99.99
2018-09-19T04:00:55.671Z,99.99
2018-09-19T04:02:04.578Z,99.99
2018-09-19T04:03:13.487Z,99.99
2018-09-19T04:04:22.144Z,99.99
2018-09-19T04:05:31.049Z,99.99
2018-09-19T04:06:39.985Z,99.99
2018-09-19T04:07:48.619Z,99.99
2018-09-19T04:08:57.801Z,99.99
2018-09-19T04:10:06.722Z,99.99
2018-09-19T04:11:15.646Z,99.99
2018-09-19T04:12:24.568Z,99.99
2018-09-19T04:13:34.015Z,99.99
2018-09-19T04:14:42.919Z,99.99
2018-09-19T04:15:51.571Z,99.99
2018-09-19T04:17:00.485Z,99.99
2018-09-19T04:18:09.132Z,99.99
2018-09-19T04:19:18.037Z,99.99
2018-09-19T04:20:26.968Z,99.99
2018-09-19T04:21:35.618Z,99.99
2018-09-19T04:22:44.548Z,99.99
2018-09-19T04:23:53.187Z,99.99
2018-09-19T04:25:02.099Z,99.99
2018-09-19T04:26:11.283Z,99.99
2018-09-19T04:27:19.944Z,99.99
2018-09-19T04:28:28.592Z,99.99
2018-09-19T04:29:37.504Z,99.99
2018-09-19T04:30:46.152Z,99.99
2018-09-19T04:31:55.080Z,99.99
2018-09-19T04:33:04.006Z,99.99
2018-09-19T04:34:12.917Z,99.99
2018-09-19T04:35:21.552Z,99.99
2018-09-19T04:36:30.204Z,99.99
2018-09-19T04:37:39.394Z,99.99
2018-09-19T04:38:48.852Z,99.99
2018-09-19T04:39:57.760Z,99.99
2018-09-19T04:41:06.938Z,99.99
2018-09-19T04:42:16.151Z,99.99
2018-09-19T04:43:24.805Z,99.99
2018-09-19T04:44:33.984Z,99.99
2018-09-19T04:45:42.680Z,99.99
2018-09-19T04:46:51.582Z,99.99
2018-09-19T04:48:00.206Z,99.99
2018-09-19T04:49:09.402Z,99.99
2018-09-19T04:50:18.060Z,99.99
2018-09-19T04:51:26.768Z,99.99
2018-09-19T04:52:36.450Z,99.99
2018-09-19T04:53:45.107Z,99.99
2018-09-19T04:54:53.752Z,99.99
2018-09-19T04:56:02.658Z,99.99
2018-09-19T04:57:11.309Z,99.99
2018-09-19T04:58:20.505Z,99.99
2018-09-19T04:59:29.436Z,99.99
2018-09-19T05:00:38.076Z,99.99
2018-09-19T05:01:46.989Z,99.99
2018-09-19T05:02:56.691Z,99.99
2018-09-19T05:04:05.344Z,99.99
2018-09-19T05:05:14.002Z,99.99
2018-09-19T05:06:22.636Z,99.99
2018-09-19T05:07:31.538Z,99.99
2018-09-19T05:08:40.462Z,99.99
2018-09-19T05:09:49.368Z,99.99
2018-09-19T05:10:58.289Z,99.99
2018-09-19T05:12:07.730Z,99.99
2018-09-19T05:13:17.493Z,99.99
2018-09-19T05:14:26.151Z,99.99
2018-09-19T05:15:35.054Z,99.99
2018-09-19T05:16:43.705Z,99.99
2018-09-19T05:17:52.879Z,99.99
2018-09-19T05:19:01.526Z,99.99
2018-09-19T05:20:10.436Z,99.99
2018-09-19T05:21:19.088Z,99.99
2018-09-19T05:22:27.986Z,99.99
2018-09-19T05:23:36.642Z,99.99
2018-09-19T05:24:45.286Z,99.99
2018-09-19T05:25:53.937Z,99.99
2018-09-19T05:27:02.580Z,99.99
2018-09-19T05:28:11.234Z,99.99
2018-09-19T05:29:20.457Z,99.99
2018-09-19T05:30:29.105Z,99.99
2018-09-19T05:31:38.071Z,99.99
2018-09-19T05:32:47.070Z,99.99
2018-09-19T05:33:55.712Z,99.99
2018-09-19T05:35:04.622Z,99.99
2018-09-19T05:36:14.082Z,99.99
2018-09-19T05:37:22.728Z,99.99
2018-09-19T05:38:31.643Z,99.99
2018-09-19T05:39:40.283Z,99.99
2018-09-19T05:40:49.194Z,99.99
2018-09-19T05:41:57.841Z,99.99
2018-09-19T05:43:07.016Z,99.99
2018-09-19T05:44:15.930Z,99.99
2018-09-19T05:45:24.587Z,99.99
2018-09-19T05:46:33.314Z,99.99
2018-09-19T05:47:41.870Z,99.99
2018-09-19T05:48:50.771Z,99.99
2018-09-19T05:49:59.718Z,99.99
2018-09-19T05:51:08.363Z,99.99
2018-09-19T05:52:17.011Z,99.99
2018-09-19T05:53:25.656Z,99.99
2018-09-19T05:54:34.308Z,99.99
2018-09-19T05:55:43.697Z,99.99
2018-09-19T05:56:52.344Z,99.99
2018-09-19T05:58:01.017Z,99.99
2018-09-19T05:59:09.901Z,99.99
2018-09-19T06:00:18.808Z,99.99
2018-09-19T06:01:27.717Z,99.99
2018-09-19T06:02:36.370Z,99.99
2018-09-19T06:03:45.026Z,99.99
2018-09-19T06:04:53.685Z,99.99
2018-09-19T06:06:02.683Z,99.99
2018-09-19T06:07:11.604Z,99.99
2018-09-19T06:08:20.515Z,99.99
2018-09-19T06:09:29.161Z,99.99
2018-09-19T06:10:37.809Z,99.99
2018-09-19T06:11:46.458Z,99.99
2018-09-19T06:12:55.146Z,99.99
2018-09-19T06:14:04.196Z,99.99
2018-09-19T06:15:12.840Z,99.99
2018-09-19T06:16:21.761Z,99.99
2018-09-19T06:17:30.663Z,99.99
2018-09-19T06:18:39.309Z,99.99
2018-09-19T06:19:47.952Z,99.99
2018-09-19T06:20:56.879Z,99.99
2018-09-19T06:22:05.520Z,99.99
2018-09-19T06:23:14.169Z,99.99
2018-09-19T06:24:23.085Z,99.99
2018-09-19T06:25:32.015Z,99.99
2018-09-19T06:26:41.183Z,99.99
2018-09-19T06:27:50.089Z,99.99
2018-09-19T06:28:58.733Z,99.99
2018-09-19T06:30:07.378Z,99.99
2018-09-19T06:31:16.034Z,99.99
2018-09-19T06:32:24.947Z,99.91
2018-09-19T06:33:33.938Z,99.99
2018-09-19T06:34:42.775Z,99.82
2018-09-19T06:35:51.955Z,99.99
2018-09-19T06:37:00.693Z,99.15
2018-09-19T06:38:09.252Z,99.1
2018-09-19T06:39:18.693Z,98.72
2018-09-19T06:40:27.494Z,98.52
2018-09-19T06:41:36.311Z,98.43
2018-09-19T06:42:45.223Z,97.95
2018-09-19T06:43:54.121Z,98.24
2018-09-19T06:45:02.775Z,97.9
2018-09-19T06:46:11.424Z,98.05
2018-09-19T06:47:20.081Z,97.61
2018-09-19T06:48:28.727Z,96.94
2018-09-19T06:49:37.631Z,96.66
2018-09-19T06:50:46.542Z,96.47
2018-09-19T06:51:55.476Z,95.89
2018-09-19T06:53:04.103Z,95.7
2018-09-19T06:54:12.744Z,95.98
2018-09-19T06:55:21.659Z,95.12
2018-09-19T06:56:30.305Z,94.98
2018-09-19T06:57:38.965Z,94.59
2018-09-19T06:58:48.735Z,94.49
2018-09-19T06:59:57.384Z,94.4
2018-09-19T07:01:06.431Z,94.31
2018-09-19T07:02:15.401Z,94.88
2018-09-19T07:03:24.144Z,94.02
2018-09-19T07:04:33.197Z,93.92
2018-09-19T07:05:42.353Z,93.54
2018-09-19T07:06:51.335Z,93.2
2018-09-19T07:08:00.632Z,93.01
2018-09-19T07:09:09.298Z,93.3
2018-09-19T07:10:17.944Z,93.49
2018-09-19T07:11:26.586Z,92.72
2018-09-19T07:12:35.501Z,92.82
2018-09-19T07:13:44.421Z,92.53
2018-09-19T07:14:53.163Z,92.53
2018-09-19T07:16:01.711Z,92.05
2018-09-19T07:17:10.367Z,91.86
2018-09-19T07:18:19.011Z,91.86
2018-09-19T07:19:27.660Z,91.57
2018-09-19T07:20:36.572Z,91.52
2018-09-19T07:21:45.217Z,91.23
2018-09-19T07:22:53.864Z,90.84
2018-09-19T07:24:03.055Z,90.75
2018-09-19T07:25:12.147Z,90.56
2018-09-19T07:26:21.095Z,90.37
2018-09-19T07:27:29.747Z,90.08
2018-09-19T07:28:38.659Z,89.5
2018-09-19T07:29:47.570Z,89.69
2018-09-19T07:30:56.817Z,89.89
2018-09-19T07:32:05.806Z,89.69
2018-09-19T07:33:14.719Z,89.93
2018-09-19T07:34:23.638Z,89.16
2018-09-19T07:35:32.281Z,89.16
2018-09-19T07:36:41.216Z,89.26
2018-09-19T07:37:50.128Z,89.36
2018-09-19T07:38:58.779Z,88.59
2018-09-19T07:40:07.733Z,88.1
2018-09-19T07:41:16.621Z,88.2
2018-09-19T07:42:25.270Z,88.2
2018-09-19T07:43:34.183Z,88.2
2018-09-19T07:44:42.844Z,87.57
2018-09-19T07:45:51.756Z,87.24
2018-09-19T07:47:00.403Z,87.24
2018-09-19T07:48:09.841Z,87.48
2018-09-19T07:49:18.490Z,87.38
2018-09-19T07:50:27.138Z,87.09
2018-09-19T07:51:35.790Z,86.99
2018-09-19T07:52:44.967Z,86.71
2018-09-19T07:53:53.887Z,86.04
2018-09-19T07:55:02.536Z,86.13
2018-09-19T07:56:11.796Z,85.55
2018-09-19T07:57:20.726Z,85.84
2018-09-19T07:58:29.622Z,85.69
2018-09-19T07:59:38.540Z,85.11
2018-09-19T08:00:47.265Z,85.11
2018-09-19T08:01:56.253Z,84.54
2018-09-19T08:03:04.899Z,84.06
2018-09-19T08:04:13.813Z,83.86
2018-09-19T08:05:22.464Z,83.29
2018-09-19T08:06:31.137Z,82.61
2018-09-19T08:07:40.032Z,83.14
2018-09-19T08:08:48.938Z,82.46
2018-09-19T08:09:57.592Z,82.56
2018-09-19T08:11:06.764Z,82.17
2018-09-19T08:12:15.424Z,81.6
2018-09-19T08:13:24.596Z,81.79
2018-09-19T08:14:33.256Z,81.79
2018-09-19T08:15:42.422Z,81.5
2018-09-19T08:16:51.828Z,81.21
2018-09-19T08:18:00.408Z,81.6
2018-09-19T08:19:09.059Z,81.45
2018-09-19T08:20:17.721Z,80.77
2018-09-19T08:21:26.637Z,79.71
2018-09-19T08:22:35.643Z,79.9
2018-09-19T08:23:45.199Z,79.43
2018-09-19T08:24:54.118Z,79.61
2018-09-19T08:26:03.028Z,79.81
2018-09-19T08:27:11.990Z,78.98
2018-09-19T08:28:20.639Z,79.08
2018-09-19T08:29:29.560Z,78.88
2018-09-19T08:30:38.476Z,78.4
2018-09-19T08:31:47.961Z,78.59
2018-09-19T08:32:56.610Z,78.59
2018-09-19T08:34:05.265Z,78.5
2018-09-19T08:35:13.916Z,77.83
2018-09-19T08:36:22.832Z,77.44
2018-09-19T08:37:31.754Z,77.58
2018-09-19T08:38:40.398Z,77.67
2018-09-19T08:39:49.325Z,77.83
2018-09-19T08:40:57.974Z,77.86
2018-09-19T08:42:06.895Z,77.48
2018-09-19T08:43:16.076Z,76.9
2018-09-19T08:44:24.728Z,76.8
2018-09-19T08:45:33.645Z,76.71
2018-09-19T08:46:42.302Z,76.9
2018-09-19T08:47:50.950Z,76.17
2018-09-19T08:48:59.602Z,76.26
2018-09-19T08:50:08.250Z,75.88
2018-09-19T08:51:16.905Z,76.07
2018-09-19T08:52:25.823Z,75.2
2018-09-19T08:53:34.474Z,75.2
2018-09-19T08:54:43.160Z,75.2
2018-09-19T08:55:52.324Z,74.82
2018-09-19T08:57:01.064Z,75.01
2018-09-19T08:58:09.986Z,75.49
2018-09-19T08:59:18.934Z,75.14
2018-09-19T09:00:27.545Z,74.76
2018-09-19T09:01:36.468Z,74.18
2018-09-19T09:02:45.635Z,74.37
2018-09-19T09:03:54.542Z,73.69
2018-09-19T09:05:03.463Z,73.99
2018-09-19T09:06:12.452Z,73.79
2018-09-19T09:07:21.102Z,73.73
2018-09-19T09:08:29.742Z,73.73
2018-09-19T09:09:39.188Z,73.44
2018-09-19T09:10:48.108Z,73.15
2018-09-19T09:11:57.030Z,72.96
2018-09-19T09:13:05.673Z,72.61
2018-09-19T09:14:14.322Z,72.22
2018-09-19T09:15:23.237Z,72.22
2018-09-19T09:16:31.895Z,72.8
2018-09-19T09:17:40.800Z,72.8
2018-09-19T09:18:49.457Z,72.13
2018-09-19T09:19:58.776Z,72.71
2018-09-19T09:21:07.399Z,72.32
2018-09-19T09:22:16.316Z,72.32
2018-09-19T09:23:24.972Z,72.32
2018-09-19T09:24:33.616Z,72.22
2018-09-19T09:25:42.545Z,72.26
2018-09-19T09:26:52.124Z,72.16
2018-09-19T09:28:01.548Z,71.78
2018-09-19T09:29:10.191Z,71.97
2018-09-19T09:30:19.388Z,71.78
2018-09-19T09:31:28.631Z,71.97
2018-09-19T09:32:37.544Z,71.97
2018-09-19T09:33:46.462Z,71.97
2018-09-19T09:34:55.112Z,72.36
2018-09-19T09:36:04.038Z,72.26
2018-09-19T09:37:12.714Z,72.2
2018-09-19T09:38:21.641Z,71.78
2018-09-19T09:39:30.549Z,72
2018-09-19T09:40:39.625Z,71.91
2018-09-19T09:41:48.121Z,71.42
2018-09-19T09:42:57.304Z,71.81
2018-09-19T09:44:05.944Z,71.62
2018-09-19T09:45:14.602Z,71.81
2018-09-19T09:46:23.247Z,71.72
2018-09-19T09:47:31.907Z,71.81
2018-09-19T09:48:40.560Z,71.52
2018-09-19T09:49:49.208Z,71.81
2018-09-19T09:50:58.132Z,71.62
2018-09-19T09:52:06.789Z,71.04
2018-09-19T09:53:16.005Z,71.17
2018-09-19T09:54:24.625Z,71.66
2018-09-19T09:55:33.279Z,71.75
2018-09-19T09:56:41.927Z,70.88
2018-09-19T09:57:50.587Z,70.59
2018-09-19T09:58:59.506Z,70.2
2018-09-19T10:00:08.160Z,70.1
2018-09-19T10:01:16.802Z,69.92
2018-09-19T10:02:25.758Z,70.14
2018-09-19T10:03:34.929Z,70.34
2018-09-19T10:04:43.574Z,70.14
2018-09-19T10:05:52.220Z,69.85
2018-09-19T10:07:00.907Z,69.56
2018-09-19T10:08:09.826Z,69.66
2018-09-19T10:09:18.483Z,69.37
2018-09-19T10:10:27.398Z,69.08
2018-09-19T10:11:36.041Z,68.4
2018-09-19T10:12:44.718Z,67.66
2018-09-19T10:13:53.631Z,67.95
2018-09-19T10:15:02.872Z,67.76
2018-09-19T10:16:11.782Z,67.27
2018-09-19T10:17:20.442Z,67.66
2018-09-19T10:18:29.252Z,68.43
2018-09-19T10:19:38.035Z,68.15
2018-09-19T10:20:46.706Z,67.66
2018-09-19T10:21:55.357Z,67.21
2018-09-19T10:23:04.005Z,66.92
2018-09-19T10:24:12.928Z,67.11
2018-09-19T10:25:21.845Z,66.92
2018-09-19T10:26:30.493Z,66.53
2018-09-19T10:27:39.142Z,65.89
2018-09-19T10:28:47.794Z,64.82
2018-09-19T10:29:56.720Z,64.43
2018-09-19T10:31:05.637Z,64.53
2018-09-19T10:32:14.293Z,64.72
2018-09-19T10:33:23.202Z,64.53
2018-09-19T10:34:32.126Z,64.47
2018-09-19T10:35:40.775Z,64.47
2018-09-19T10:36:49.700Z,63.69
2018-09-19T10:37:58.347Z,64.07
2018-09-19T10:39:07.269Z,63.4
2018-09-19T10:40:16.181Z,63.4
2018-09-19T10:41:24.834Z,63.23
2018-09-19T10:42:33.741Z,61.88
2018-09-19T10:43:42.401Z,61.39
2018-09-19T10:44:51.050Z,61.58
2018-09-19T10:45:59.975Z,61.91
2018-09-19T10:47:08.625Z,61.49
2018-09-19T10:48:17.531Z,61.88
2018-09-19T10:49:26.201Z,62.55
2018-09-19T10:50:35.213Z,62.95
2018-09-19T10:51:43.872Z,62.52
2018-09-19T10:52:52.522Z,63.78
2018-09-19T10:54:01.174Z,63.88
2018-09-19T10:55:09.830Z,64.27
2018-09-19T10:56:18.487Z,64.43
2018-09-19T10:57:27.667Z,64.14
2018-09-19T10:58:36.321Z,64.24
2018-09-19T10:59:44.969Z,64.53
2018-09-19T11:00:54.153Z,64.04
2018-09-19T11:02:03.077Z,64.24
2018-09-19T11:03:11.989Z,64.37
2018-09-19T11:04:20.639Z,63.95
2018-09-19T11:05:29.298Z,64.14
2018-09-19T11:06:38.260Z,63.75
2018-09-19T11:07:46.917Z,64.47
2018-09-19T11:08:55.961Z,63.2
2018-09-19T11:10:04.627Z,62.82
2018-09-19T11:11:13.302Z,62.62
2018-09-19T11:12:22.495Z,62.33
2018-09-19T11:13:31.436Z,62.65
2018-09-19T11:14:40.376Z,61.88
2018-09-19T11:15:50.179Z,61.98
2018-09-19T11:16:58.966Z,61.88
2018-09-19T11:18:08.213Z,61.78
2018-09-19T11:19:16.951Z,61.88
2018-09-19T11:20:25.649Z,61.88
2018-09-19T11:21:34.306Z,62.16
2018-09-19T11:22:43.306Z,62.65
2018-09-19T11:23:52.300Z,62.36
2018-09-19T11:25:01.977Z,62.26
2018-09-19T11:26:10.959Z,61.98
2018-09-19T11:27:20.159Z,61.78
2018-09-19T11:28:29.166Z,61.58
2018-09-19T11:29:37.953Z,61.19
2018-09-19T11:30:46.610Z,61.1
2018-09-19T11:31:55.257Z,61.42
2018-09-19T11:33:04.181Z,61.49
2018-09-19T11:34:12.860Z,62.75
2018-09-19T11:35:21.513Z,62.75
2018-09-19T11:36:30.168Z,63.43
2018-09-19T11:37:39.088Z,63.23
2018-09-19T11:38:48.001Z,63.01
2018-09-19T11:39:56.648Z,63.43
2018-09-19T11:41:05.300Z,63.72
2018-09-19T11:42:14.475Z,63.49
2018-09-19T11:43:23.471Z,63.78
2018-09-19T11:44:32.059Z,63.01
2018-09-19T11:45:40.715Z,63.2
2018-09-19T11:46:49.360Z,64.17
2018-09-19T11:47:58.021Z,64.17
2018-09-19T11:49:06.934Z,63.01
2018-09-19T11:50:15.586Z,63.49
2018-09-19T11:51:24.491Z,63.4
2018-09-19T11:52:33.150Z,64.56
2018-09-19T11:53:41.815Z,63.3
2018-09-19T11:54:50.474Z,63.4
2018-09-19T11:55:59.121Z,64.07
2018-09-19T11:57:07.779Z,64.07
2018-09-19T11:58:16.461Z,63.4
2018-09-19T11:59:25.118Z,64.27
2018-09-19T12:00:33.773Z,64.37
2018-09-19T12:01:42.675Z,64.56
2018-09-19T12:02:51.330Z,64.56
2018-09-19T12:04:00.248Z,64.65
2018-09-19T12:05:08.890Z,64.27
2018-09-19T12:06:17.553Z,63.69
2018-09-19T12:07:26.287Z,64.17
2018-09-19T12:08:34.858Z,63.1
2018-09-19T12:09:43.505Z,63.43
2018-09-19T12:10:52.165Z,63.04
2018-09-19T12:12:00.810Z,63.43
2018-09-19T12:13:09.464Z,62.85
2018-09-19T12:14:18.108Z,61.68
2018-09-19T12:15:27.038Z,61.52
2018-09-19T12:16:36.230Z,62.01
2018-09-19T12:17:44.885Z,61.81
2018-09-19T12:18:53.543Z,61.61
2018-09-19T12:20:02.183Z,61.61
2018-09-19T12:21:10.840Z,61.61
2018-09-19T12:22:19.508Z,61.22
2018-09-19T12:23:28.167Z,61.81
2018-09-19T12:24:36.810Z,61.94
2018-09-19T12:25:45.470Z,62.59
2018-09-19T12:26:54.379Z,61.71
2018-09-19T12:28:03.043Z,62.01
2018-09-19T12:29:11.685Z,61.91
2018-09-19T12:30:20.343Z,62.78
2018-09-19T12:31:28.988Z,63.17
2018-09-19T12:32:37.649Z,62.39
2018-09-19T12:33:46.301Z,61.91
2018-09-19T12:34:54.947Z,62.1
2018-09-19T12:36:03.885Z,61.91
2018-09-19T12:37:12.533Z,61.81
2018-09-19T12:38:21.195Z,61.35
2018-09-19T12:39:29.891Z,61.65
2018-09-19T12:40:38.504Z,60.68
2018-09-19T12:41:47.413Z,60.28
2018-09-19T12:42:56.074Z,60.77
2018-09-19T12:44:04.726Z,59.7
2018-09-19T12:45:13.382Z,60
2018-09-19T12:46:22.025Z,59.9
2018-09-19T12:47:30.688Z,59.12
2018-09-19T12:48:39.594Z,59.8
2018-09-19T12:49:48.249Z,59.05
2018-09-19T12:50:56.897Z,58.67
2018-09-19T12:52:05.556Z,58.86
2018-09-19T12:53:14.278Z,59.05
2018-09-19T12:54:22.867Z,58.86
2018-09-19T12:55:31.522Z,59.34
2018-09-19T12:56:40.167Z,58.69
2018-09-19T12:57:49.090Z,59.18
2018-09-19T12:58:57.741Z,58.21
2018-09-19T13:00:06.400Z,58.11
2018-09-19T13:01:15.045Z,57.82
2018-09-19T13:02:24.312Z,58.11
2018-09-19T13:03:33.237Z,57.43
2018-09-19T13:04:41.888Z,57.53
2018-09-19T13:05:50.538Z,58.4
2018-09-19T13:06:59.192Z,57.33
2018-09-19T13:08:07.845Z,58.31
2018-09-19T13:09:16.502Z,58.18
2018-09-19T13:10:25.153Z,58.28
2018-09-19T13:11:33.807Z,59.54
2018-09-19T13:12:42.457Z,59.74
2018-09-19T13:13:51.375Z,60
2018-09-19T13:15:00.035Z,59.8
2018-09-19T13:16:08.684Z,60.09
2018-09-19T13:17:17.335Z,60.55
2018-09-19T13:18:26.247Z,60.64
2018-09-19T13:19:34.905Z,60.87
2018-09-19T13:20:43.559Z,60.84
2018-09-19T13:21:52.223Z,60.84
2018-09-19T13:23:01.121Z,60.74
2018-09-19T13:24:09.779Z,60.45
2018-09-19T13:25:19.208Z,60.55
2018-09-19T13:26:27.861Z,59.8
2018-09-19T13:27:36.509Z,60.06
2018-09-19T13:28:45.167Z,58.73
2018-09-19T13:29:53.815Z,59.22
2018-09-19T13:31:02.471Z,59.8
2018-09-19T13:32:11.395Z,59.7
2018-09-19T13:33:20.301Z,60
2018-09-19T13:34:28.952Z,59.9
2018-09-19T13:35:37.606Z,59.9
2018-09-19T13:36:46.263Z,59.8
2018-09-19T13:37:55.174Z,60.28
2018-09-19T13:39:03.825Z,60.25
2018-09-19T13:40:12.478Z,59.67
2018-09-19T13:41:21.136Z,60.06
2018-09-19T13:42:29.787Z,59.87
2018-09-19T13:43:38.441Z,60.68
2018-09-19T13:44:47.092Z,59.7
2018-09-19T13:45:55.748Z,60.19
2018-09-19T13:47:04.397Z,60
2018-09-19T13:48:13.054Z,59.8
2018-09-19T13:49:21.704Z,59.12
2018-09-19T13:50:30.352Z,59.12
2018-09-19T13:51:39.008Z,59.51
2018-09-19T13:52:47.930Z,59.12
2018-09-19T13:53:56.586Z,58.73
2018-09-19T13:55:05.503Z,59.12
2018-09-19T13:56:14.419Z,59.05
2018-09-19T13:57:23.070Z,57.86
2018-09-19T13:58:31.722Z,57.76
2018-09-19T13:59:40.381Z,58.05
2018-09-19T14:00:49.021Z,58.76
2018-09-19T14:01:57.679Z,58.15
2018-09-19T14:03:06.330Z,57.86
2018-09-19T14:04:15.283Z,58.37
2018-09-19T14:05:24.285Z,58.18
2018-09-19T14:06:32.918Z,57.96
2018-09-19T14:07:41.568Z,58.64
2018-09-19T14:08:50.216Z,58.73
2018-09-19T14:09:58.879Z,58.73
2018-09-19T14:11:07.525Z,59.41
2018-09-19T14:12:16.237Z,59.9
2018-09-19T14:13:24.825Z,60.77
2018-09-19T14:14:33.486Z,60
2018-09-19T14:15:42.134Z,60
2018-09-19T14:16:50.795Z,59.41
2018-09-19T14:17:59.699Z,59.03
2018-09-19T14:19:08.628Z,59.03
2018-09-19T14:20:17.279Z,59.12
2018-09-19T14:21:25.936Z,59.03
2018-09-19T14:22:34.582Z,59.03
2018-09-19T14:23:43.240Z,58.64
2018-09-19T14:24:51.889Z,59.51
2018-09-19T14:26:00.808Z,58.15
2018-09-19T14:27:09.990Z,58.64
2018-09-19T14:28:18.936Z,59.12
2018-09-19T14:29:27.944Z,58.93
2018-09-19T14:30:36.857Z,59.7
2018-09-19T14:31:45.517Z,58.25
2018-09-19T14:32:54.161Z,59.31
2018-09-19T14:34:02.821Z,60.58
2018-09-19T14:35:11.467Z,58.73
2018-09-19T14:36:20.394Z,58.44
2018-09-19T14:37:29.043Z,58.64
2018-09-19T14:38:37.699Z,58.15
2018-09-19T14:39:46.348Z,58.64
2018-09-19T14:40:55.020Z,58.34
2018-09-19T14:42:04.460Z,57.96
2018-09-19T14:43:13.105Z,59.03
2018-09-19T14:44:21.758Z,60.87
2018-09-19T14:45:30.409Z,60.97
2018-09-19T14:46:39.335Z,58.83
2018-09-19T14:47:48.249Z,58.73
2018-09-19T14:48:56.929Z,58.41
2018-09-19T14:50:05.547Z,58.44